sensor_id;sensor_type;location;lat;lon;timestamp;P1;durP1;ratioP1;P2;durP2;ratioP2
12155;SDS011;6141;49.092;8.516;2023-05-16T00:01:29;18.20;;;16.43;;
12155;SDS011;6141;49.092;8.516;2023-05-16T00:04:01;16.43;;;14.93;;
12155;SDS011;6141;49.092;8.516;2023-05-16T00:06:30;19.27;;;17.47;;
12155;SDS011;6141;49.092;8.516;2023-05-16T00:08:59;17.83;;;16.03;;
12155;SDS011;6141;49.092;8.516;2023-05-16T00:11:29;16.90;;;15.27;;
12155;SDS011;6141;49.092;8.516;2023-05-16T00:13:57;19.30;;;16.40;;
12155;SDS011;6141;49.092;8.516;2023-05-16T00:16:29;20.67;;;18.77;;
12155;SDS011;6141;49.092;8.516;2023-05-16T00:18:59;19.20;;;17.23;;
12155;SDS011;6141;49.092;8.516;2023-05-16T00:21:28;16.70;;;15.10;;
12155;SDS011;6141;49.092;8.516;2023-05-16T00:23:57;19.10;;;16.53;;
12155;SDS011;6141;49.092;8.516;2023-05-16T00:26:26;20.43;;;18.53;;
12155;SDS011;6141;49.092;8.516;2023-05-16T00:28:54;19.93;;;18.03;;
12155;SDS011;6141;49.092;8.516;2023-05-16T00:31:22;19.53;;;17.50;;
12155;SDS011;6141;49.092;8.516;2023-05-16T00:33:52;19.50;;;17.60;;
12155;SDS011;6141;49.092;8.516;2023-05-16T00:36:23;19.67;;;17.57;;
12155;SDS011;6141;49.092;8.516;2023-05-16T00:38:51;23.27;;;20.80;;
12155;SDS011;6141;49.092;8.516;2023-05-16T00:41:20;21.50;;;19.30;;
12155;SDS011;6141;49.092;8.516;2023-05-16T00:43:50;23.57;;;21.27;;
12155;SDS011;6141;49.092;8.516;2023-05-16T00:46:20;24.30;;;21.90;;
12155;SDS011;6141;49.092;8.516;2023-05-16T00:48:48;23.20;;;20.87;;
12155;SDS011;6141;49.092;8.516;2023-05-16T00:51:18;23.03;;;20.60;;
12155;SDS011;6141;49.092;8.516;2023-05-16T00:53:47;24.87;;;22.33;;
12155;SDS011;6141;49.092;8.516;2023-05-16T00:56:17;25.23;;;22.63;;
12155;SDS011;6141;49.092;8.516;2023-05-16T00:58:47;27.83;;;25.07;;
12155;SDS011;6141;49.092;8.516;2023-05-16T01:01:16;27.90;;;25.10;;
12155;SDS011;6141;49.092;8.516;2023-05-16T01:03:47;27.80;;;24.80;;
12155;SDS011;6141;49.092;8.516;2023-05-16T01:06:16;26.67;;;23.97;;
12155;SDS011;6141;49.092;8.516;2023-05-16T01:08:46;30.43;;;27.13;;
12155;SDS011;6141;49.092;8.516;2023-05-16T01:11:17;28.83;;;25.77;;
12155;SDS011;6141;49.092;8.516;2023-05-16T01:13:54;27.83;;;24.93;;
12155;SDS011;6141;49.092;8.516;2023-05-16T01:16:29;30.20;;;26.97;;
12155;SDS011;6141;49.092;8.516;2023-05-16T01:19:05;31.30;;;28.07;;
12155;SDS011;6141;49.092;8.516;2023-05-16T01:21:47;29.03;;;25.97;;
12155;SDS011;6141;49.092;8.516;2023-05-16T01:24:26;30.40;;;27.23;;
12155;SDS011;6141;49.092;8.516;2023-05-16T01:27:01;30.30;;;27.07;;
12155;SDS011;6141;49.092;8.516;2023-05-16T01:29:32;31.73;;;28.43;;
12155;SDS011;6141;49.092;8.516;2023-05-16T01:32:03;32.90;;;28.30;;
12155;SDS011;6141;49.092;8.516;2023-05-16T01:34:32;31.57;;;28.23;;
12155;SDS011;6141;49.092;8.516;2023-05-16T01:37:02;30.00;;;26.83;;
12155;SDS011;6141;49.092;8.516;2023-05-16T01:39:40;31.57;;;28.13;;
12155;SDS011;6141;49.092;8.516;2023-05-16T01:42:13;32.70;;;29.13;;
12155;SDS011;6141;49.092;8.516;2023-05-16T01:44:43;32.00;;;28.53;;
12155;SDS011;6141;49.092;8.516;2023-05-16T01:47:18;33.50;;;29.87;;
12155;SDS011;6141;49.092;8.516;2023-05-16T01:49:50;31.47;;;28.07;;
12155;SDS011;6141;49.092;8.516;2023-05-16T01:52:25;31.83;;;28.53;;
12155;SDS011;6141;49.092;8.516;2023-05-16T01:54:59;32.73;;;29.13;;
12155;SDS011;6141;49.092;8.516;2023-05-16T01:57:33;33.00;;;29.43;;
12155;SDS011;6141;49.092;8.516;2023-05-16T02:00:03;31.87;;;28.57;;
12155;SDS011;6141;49.092;8.516;2023-05-16T02:02:39;33.73;;;30.17;;
12155;SDS011;6141;49.092;8.516;2023-05-16T02:05:08;32.70;;;29.17;;
12155;SDS011;6141;49.092;8.516;2023-05-16T02:07:37;33.87;;;30.37;;
12155;SDS011;6141;49.092;8.516;2023-05-16T02:10:07;31.53;;;28.23;;
12155;SDS011;6141;49.092;8.516;2023-05-16T02:12:37;33.80;;;30.10;;
12155;SDS011;6141;49.092;8.516;2023-05-16T02:15:07;32.73;;;29.23;;
12155;SDS011;6141;49.092;8.516;2023-05-16T02:17:37;33.47;;;30.00;;
12155;SDS011;6141;49.092;8.516;2023-05-16T02:20:09;33.57;;;30.07;;
12155;SDS011;6141;49.092;8.516;2023-05-16T02:22:48;32.03;;;28.53;;
12155;SDS011;6141;49.092;8.516;2023-05-16T02:25:27;34.07;;;30.67;;
12155;SDS011;6141;49.092;8.516;2023-05-16T02:27:57;33.40;;;29.87;;
12155;SDS011;6141;49.092;8.516;2023-05-16T02:30:26;33.03;;;28.60;;
12155;SDS011;6141;49.092;8.516;2023-05-16T02:32:56;33.50;;;29.60;;
12155;SDS011;6141;49.092;8.516;2023-05-16T02:35:25;33.30;;;29.70;;
12155;SDS011;6141;49.092;8.516;2023-05-16T02:37:54;33.00;;;29.40;;
12155;SDS011;6141;49.092;8.516;2023-05-16T02:40:23;32.40;;;29.00;;
12155;SDS011;6141;49.092;8.516;2023-05-16T02:42:52;34.13;;;30.40;;
12155;SDS011;6141;49.092;8.516;2023-05-16T02:45:22;31.47;;;28.17;;
12155;SDS011;6141;49.092;8.516;2023-05-16T02:47:50;30.50;;;26.40;;
12155;SDS011;6141;49.092;8.516;2023-05-16T02:50:19;32.87;;;29.27;;
12155;SDS011;6141;49.092;8.516;2023-05-16T02:52:47;29.60;;;26.40;;
12155;SDS011;6141;49.092;8.516;2023-05-16T02:55:16;28.47;;;25.57;;
12155;SDS011;6141;49.092;8.516;2023-05-16T02:57:48;30.57;;;27.23;;
12155;SDS011;6141;49.092;8.516;2023-05-16T03:00:18;29.17;;;26.10;;
12155;SDS011;6141;49.092;8.516;2023-05-16T03:02:49;29.83;;;26.40;;
12155;SDS011;6141;49.092;8.516;2023-05-16T03:05:17;30.17;;;26.43;;
12155;SDS011;6141;49.092;8.516;2023-05-16T03:07:46;29.87;;;26.67;;
12155;SDS011;6141;49.092;8.516;2023-05-16T03:10:14;28.10;;;25.10;;
12155;SDS011;6141;49.092;8.516;2023-05-16T03:12:44;29.50;;;26.23;;
12155;SDS011;6141;49.092;8.516;2023-05-16T03:15:12;28.47;;;25.33;;
12155;SDS011;6141;49.092;8.516;2023-05-16T03:17:42;27.87;;;24.87;;
12155;SDS011;6141;49.092;8.516;2023-05-16T03:20:12;26.97;;;24.17;;
12155;SDS011;6141;49.092;8.516;2023-05-16T03:22:42;28.23;;;25.10;;
12155;SDS011;6141;49.092;8.516;2023-05-16T03:25:11;26.97;;;24.00;;
12155;SDS011;6141;49.092;8.516;2023-05-16T03:27:40;28.07;;;23.90;;
12155;SDS011;6141;49.092;8.516;2023-05-16T03:30:10;26.50;;;23.70;;
12155;SDS011;6141;49.092;8.516;2023-05-16T03:32:39;27.47;;;24.43;;
12155;SDS011;6141;49.092;8.516;2023-05-16T03:35:08;27.33;;;24.43;;
12155;SDS011;6141;49.092;8.516;2023-05-16T03:37:40;27.97;;;24.10;;
12155;SDS011;6141;49.092;8.516;2023-05-16T03:40:09;27.40;;;23.93;;
12155;SDS011;6141;49.092;8.516;2023-05-16T03:42:38;28.10;;;25.23;;
12155;SDS011;6141;49.092;8.516;2023-05-16T03:45:07;25.83;;;23.33;;
12155;SDS011;6141;49.092;8.516;2023-05-16T03:47:36;27.37;;;24.40;;
12155;SDS011;6141;49.092;8.516;2023-05-16T03:50:05;25.73;;;23.00;;
12155;SDS011;6141;49.092;8.516;2023-05-16T03:52:35;26.53;;;22.83;;
12155;SDS011;6141;49.092;8.516;2023-05-16T03:55:06;24.90;;;22.30;;
12155;SDS011;6141;49.092;8.516;2023-05-16T03:57:36;25.73;;;22.97;;
12155;SDS011;6141;49.092;8.516;2023-05-16T04:00:05;26.73;;;23.80;;
12155;SDS011;6141;49.092;8.516;2023-05-16T04:02:37;25.80;;;23.00;;
12155;SDS011;6141;49.092;8.516;2023-05-16T04:05:07;26.43;;;23.20;;
12155;SDS011;6141;49.092;8.516;2023-05-16T04:07:36;27.40;;;24.37;;
12155;SDS011;6141;49.092;8.516;2023-05-16T04:10:08;26.23;;;23.50;;
12155;SDS011;6141;49.092;8.516;2023-05-16T04:12:39;30.80;;;23.67;;
12155;SDS011;6141;49.092;8.516;2023-05-16T04:15:07;25.90;;;23.13;;
12155;SDS011;6141;49.092;8.516;2023-05-16T04:17:36;25.77;;;22.33;;
12155;SDS011;6141;49.092;8.516;2023-05-16T04:20:06;29.53;;;22.47;;
12155;SDS011;6141;49.092;8.516;2023-05-16T04:22:35;25.40;;;21.37;;
12155;SDS011;6141;49.092;8.516;2023-05-16T04:25:04;24.10;;;21.50;;
12155;SDS011;6141;49.092;8.516;2023-05-16T04:27:35;23.17;;;19.93;;
12155;SDS011;6141;49.092;8.516;2023-05-16T04:30:04;22.97;;;20.57;;
12155;SDS011;6141;49.092;8.516;2023-05-16T04:32:34;21.40;;;18.93;;
12155;SDS011;6141;49.092;8.516;2023-05-16T04:35:03;23.03;;;20.63;;
12155;SDS011;6141;49.092;8.516;2023-05-16T04:37:32;25.20;;;20.97;;
12155;SDS011;6141;49.092;8.516;2023-05-16T04:40:01;21.97;;;19.63;;
12155;SDS011;6141;49.092;8.516;2023-05-16T04:42:30;23.10;;;20.50;;
12155;SDS011;6141;49.092;8.516;2023-05-16T04:45:00;22.40;;;20.00;;
12155;SDS011;6141;49.092;8.516;2023-05-16T04:47:32;22.40;;;19.93;;
12155;SDS011;6141;49.092;8.516;2023-05-16T04:50:01;21.20;;;18.73;;
12155;SDS011;6141;49.092;8.516;2023-05-16T04:52:30;23.63;;;20.53;;
12155;SDS011;6141;49.092;8.516;2023-05-16T04:54:59;24.73;;;20.43;;
12155;SDS011;6141;49.092;8.516;2023-05-16T04:57:28;25.37;;;20.77;;
12155;SDS011;6141;49.092;8.516;2023-05-16T04:59:56;23.97;;;19.87;;
12155;SDS011;6141;49.092;8.516;2023-05-16T05:02:28;24.47;;;19.67;;
12155;SDS011;6141;49.092;8.516;2023-05-16T05:04:56;21.53;;;18.27;;
12155;SDS011;6141;49.092;8.516;2023-05-16T05:07:25;21.67;;;19.23;;
12155;SDS011;6141;49.092;8.516;2023-05-16T05:09:54;24.43;;;19.77;;
12155;SDS011;6141;49.092;8.516;2023-05-16T05:12:23;23.13;;;18.90;;
12155;SDS011;6141;49.092;8.516;2023-05-16T05:14:52;24.17;;;20.23;;
12155;SDS011;6141;49.092;8.516;2023-05-16T05:17:22;24.20;;;20.47;;
12155;SDS011;6141;49.092;8.516;2023-05-16T05:19:52;17.30;;;14.63;;
12155;SDS011;6141;49.092;8.516;2023-05-16T05:22:21;23.57;;;18.87;;
12155;SDS011;6141;49.092;8.516;2023-05-16T05:24:49;21.87;;;19.53;;
12155;SDS011;6141;49.092;8.516;2023-05-16T05:27:18;21.87;;;17.53;;
12155;SDS011;6141;49.092;8.516;2023-05-16T05:29:47;22.77;;;18.97;;
12155;SDS011;6141;49.092;8.516;2023-05-16T05:32:15;23.80;;;20.90;;
12155;SDS011;6141;49.092;8.516;2023-05-16T05:34:44;23.27;;;18.47;;
12155;SDS011;6141;49.092;8.516;2023-05-16T05:37:13;21.03;;;17.80;;
12155;SDS011;6141;49.092;8.516;2023-05-16T05:39:42;25.03;;;18.37;;
12155;SDS011;6141;49.092;8.516;2023-05-16T05:42:10;21.23;;;17.20;;
12155;SDS011;6141;49.092;8.516;2023-05-16T05:44:39;18.77;;;15.47;;
12155;SDS011;6141;49.092;8.516;2023-05-16T05:47:07;19.67;;;15.97;;
12155;SDS011;6141;49.092;8.516;2023-05-16T05:49:37;16.87;;;15.10;;
12155;SDS011;6141;49.092;8.516;2023-05-16T05:52:06;17.53;;;15.43;;
12155;SDS011;6141;49.092;8.516;2023-05-16T05:54:36;17.87;;;15.17;;
12155;SDS011;6141;49.092;8.516;2023-05-16T05:57:06;18.03;;;14.73;;
12155;SDS011;6141;49.092;8.516;2023-05-16T05:59:34;16.17;;;14.27;;
12155;SDS011;6141;49.092;8.516;2023-05-16T06:02:03;16.27;;;13.60;;
12155;SDS011;6141;49.092;8.516;2023-05-16T06:04:32;15.63;;;12.90;;
12155;SDS011;6141;49.092;8.516;2023-05-16T06:07:01;15.77;;;13.53;;
12155;SDS011;6141;49.092;8.516;2023-05-16T06:09:29;14.87;;;12.83;;
12155;SDS011;6141;49.092;8.516;2023-05-16T06:11:59;12.37;;;11.07;;
12155;SDS011;6141;49.092;8.516;2023-05-16T06:14:29;14.07;;;11.83;;
12155;SDS011;6141;49.092;8.516;2023-05-16T06:17:01;13.10;;;11.00;;
12155;SDS011;6141;49.092;8.516;2023-05-16T06:19:30;14.83;;;10.53;;
12155;SDS011;6141;49.092;8.516;2023-05-16T06:21:59;12.50;;;10.83;;
12155;SDS011;6141;49.092;8.516;2023-05-16T06:24:28;10.70;;;9.43;;
12155;SDS011;6141;49.092;8.516;2023-05-16T06:26:56;10.77;;;9.20;;
12155;SDS011;6141;49.092;8.516;2023-05-16T06:29:27;11.47;;;8.10;;
12155;SDS011;6141;49.092;8.516;2023-05-16T06:31:56;9.83;;;7.93;;
12155;SDS011;6141;49.092;8.516;2023-05-16T06:34:24;8.03;;;7.23;;
12155;SDS011;6141;49.092;8.516;2023-05-16T06:36:56;8.53;;;7.00;;
12155;SDS011;6141;49.092;8.516;2023-05-16T06:39:25;9.87;;;6.97;;
12155;SDS011;6141;49.092;8.516;2023-05-16T06:41:55;10.57;;;6.50;;
12155;SDS011;6141;49.092;8.516;2023-05-16T06:44:24;8.77;;;7.13;;
12155;SDS011;6141;49.092;8.516;2023-05-16T06:46:54;7.13;;;5.97;;
12155;SDS011;6141;49.092;8.516;2023-05-16T06:49:23;6.57;;;5.47;;
12155;SDS011;6141;49.092;8.516;2023-05-16T06:51:52;6.93;;;5.63;;
12155;SDS011;6141;49.092;8.516;2023-05-16T06:54:21;5.70;;;4.90;;
12155;SDS011;6141;49.092;8.516;2023-05-16T06:56:50;5.53;;;5.03;;
12155;SDS011;6141;49.092;8.516;2023-05-16T06:59:19;5.37;;;4.87;;
12155;SDS011;6141;49.092;8.516;2023-05-16T07:01:47;4.93;;;4.20;;
12155;SDS011;6141;49.092;8.516;2023-05-16T07:04:18;9.77;;;4.00;;
12155;SDS011;6141;49.092;8.516;2023-05-16T07:06:48;4.07;;;3.70;;
12155;SDS011;6141;49.092;8.516;2023-05-16T07:09:17;4.93;;;4.30;;
12155;SDS011;6141;49.092;8.516;2023-05-16T07:11:46;4.47;;;3.33;;
12155;SDS011;6141;49.092;8.516;2023-05-16T07:14:17;5.50;;;3.87;;
12155;SDS011;6141;49.092;8.516;2023-05-16T07:16:46;5.87;;;4.03;;
12155;SDS011;6141;49.092;8.516;2023-05-16T07:19:15;4.43;;;3.57;;
12155;SDS011;6141;49.092;8.516;2023-05-16T07:21:46;3.33;;;3.03;;
12155;SDS011;6141;49.092;8.516;2023-05-16T07:24:14;4.13;;;3.03;;
12155;SDS011;6141;49.092;8.516;2023-05-16T07:26:43;3.57;;;2.87;;
12155;SDS011;6141;49.092;8.516;2023-05-16T07:29:11;4.23;;;3.10;;
12155;SDS011;6141;49.092;8.516;2023-05-16T07:31:40;2.43;;;2.23;;
12155;SDS011;6141;49.092;8.516;2023-05-16T07:34:09;2.87;;;2.10;;
12155;SDS011;6141;49.092;8.516;2023-05-16T07:36:38;2.47;;;2.27;;
12155;SDS011;6141;49.092;8.516;2023-05-16T07:39:09;2.47;;;2.00;;
12155;SDS011;6141;49.092;8.516;2023-05-16T07:41:37;2.50;;;2.00;;
12155;SDS011;6141;49.092;8.516;2023-05-16T07:44:06;4.27;;;2.10;;
12155;SDS011;6141;49.092;8.516;2023-05-16T07:46:37;2.63;;;2.17;;
12155;SDS011;6141;49.092;8.516;2023-05-16T07:49:09;3.47;;;2.00;;
12155;SDS011;6141;49.092;8.516;2023-05-16T07:51:37;2.70;;;2.07;;
12155;SDS011;6141;49.092;8.516;2023-05-16T07:54:08;2.63;;;1.80;;
12155;SDS011;6141;49.092;8.516;2023-05-16T07:56:37;2.37;;;2.17;;
12155;SDS011;6141;49.092;8.516;2023-05-16T07:59:06;2.40;;;2.10;;
12155;SDS011;6141;49.092;8.516;2023-05-16T08:01:35;2.37;;;2.17;;
12155;SDS011;6141;49.092;8.516;2023-05-16T08:04:04;4.43;;;2.20;;
12155;SDS011;6141;49.092;8.516;2023-05-16T08:06:33;2.43;;;2.23;;
12155;SDS011;6141;49.092;8.516;2023-05-16T08:09:03;2.30;;;2.10;;
12155;SDS011;6141;49.092;8.516;2023-05-16T08:11:33;3.23;;;2.23;;
12155;SDS011;6141;49.092;8.516;2023-05-16T08:14:02;2.53;;;2.23;;
12155;SDS011;6141;49.092;8.516;2023-05-16T08:16:31;3.63;;;2.23;;
12155;SDS011;6141;49.092;8.516;2023-05-16T08:19:00;3.23;;;2.00;;
12155;SDS011;6141;49.092;8.516;2023-05-16T08:21:28;1.90;;;1.80;;
12155;SDS011;6141;49.092;8.516;2023-05-16T08:23:58;4.80;;;1.63;;
12155;SDS011;6141;49.092;8.516;2023-05-16T08:26:26;2.70;;;1.73;;
12155;SDS011;6141;49.092;8.516;2023-05-16T08:28:57;1.80;;;1.70;;
12155;SDS011;6141;49.092;8.516;2023-05-16T08:31:26;1.90;;;1.70;;
12155;SDS011;6141;49.092;8.516;2023-05-16T08:33:54;2.50;;;1.83;;
12155;SDS011;6141;49.092;8.516;2023-05-16T08:36:23;1.87;;;1.77;;
12155;SDS011;6141;49.092;8.516;2023-05-16T08:38:51;2.40;;;1.90;;
12155;SDS011;6141;49.092;8.516;2023-05-16T08:41:23;2.00;;;1.90;;
12155;SDS011;6141;49.092;8.516;2023-05-16T08:43:52;2.17;;;1.93;;
12155;SDS011;6141;49.092;8.516;2023-05-16T08:46:23;2.83;;;1.70;;
12155;SDS011;6141;49.092;8.516;2023-05-16T08:48:57;2.40;;;1.70;;
12155;SDS011;6141;49.092;8.516;2023-05-16T08:51:28;2.00;;;1.70;;
12155;SDS011;6141;49.092;8.516;2023-05-16T08:54:03;5.00;;;2.00;;
12155;SDS011;6141;49.092;8.516;2023-05-16T08:56:36;4.03;;;1.83;;
12155;SDS011;6141;49.092;8.516;2023-05-16T08:59:05;3.60;;;1.80;;
12155;SDS011;6141;49.092;8.516;2023-05-16T09:01:36;2.13;;;1.70;;
12155;SDS011;6141;49.092;8.516;2023-05-16T09:04:06;2.70;;;1.40;;
12155;SDS011;6141;49.092;8.516;2023-05-16T09:06:36;2.40;;;1.60;;
12155;SDS011;6141;49.092;8.516;2023-05-16T09:09:05;2.60;;;1.50;;
12155;SDS011;6141;49.092;8.516;2023-05-16T09:11:38;1.30;;;1.20;;
12155;SDS011;6141;49.092;8.516;2023-05-16T09:14:06;1.47;;;1.30;;
12155;SDS011;6141;49.092;8.516;2023-05-16T09:16:36;1.83;;;1.57;;
12155;SDS011;6141;49.092;8.516;2023-05-16T09:19:05;1.57;;;1.40;;
12155;SDS011;6141;49.092;8.516;2023-05-16T09:21:34;2.17;;;1.20;;
12155;SDS011;6141;49.092;8.516;2023-05-16T09:24:04;1.77;;;1.20;;
12155;SDS011;6141;49.092;8.516;2023-05-16T09:26:34;2.53;;;1.10;;
12155;SDS011;6141;49.092;8.516;2023-05-16T09:29:09;1.40;;;1.00;;
12155;SDS011;6141;49.092;8.516;2023-05-16T09:31:40;1.33;;;1.03;;
12155;SDS011;6141;49.092;8.516;2023-05-16T09:34:09;1.57;;;1.10;;
12155;SDS011;6141;49.092;8.516;2023-05-16T09:36:38;2.60;;;1.00;;
12155;SDS011;6141;49.092;8.516;2023-05-16T09:39:09;1.20;;;1.10;;
12155;SDS011;6141;49.092;8.516;2023-05-16T09:41:42;3.00;;;1.20;;
12155;SDS011;6141;49.092;8.516;2023-05-16T09:44:13;2.73;;;1.30;;
12155;SDS011;6141;49.092;8.516;2023-05-16T09:46:46;1.63;;;1.50;;
12155;SDS011;6141;49.092;8.516;2023-05-16T09:49:15;1.50;;;1.30;;
12155;SDS011;6141;49.092;8.516;2023-05-16T09:51:44;2.10;;;1.30;;
12155;SDS011;6141;49.092;8.516;2023-05-16T09:54:13;2.03;;;1.70;;
12155;SDS011;6141;49.092;8.516;2023-05-16T09:56:47;1.50;;;1.40;;
12155;SDS011;6141;49.092;8.516;2023-05-16T09:59:17;1.47;;;1.30;;
12155;SDS011;6141;49.092;8.516;2023-05-16T10:01:48;3.20;;;1.50;;
12155;SDS011;6141;49.092;8.516;2023-05-16T10:04:19;1.57;;;1.40;;
12155;SDS011;6141;49.092;8.516;2023-05-16T10:06:48;1.50;;;1.40;;
12155;SDS011;6141;49.092;8.516;2023-05-16T10:09:18;1.40;;;1.20;;
12155;SDS011;6141;49.092;8.516;2023-05-16T10:11:47;1.40;;;1.30;;
12155;SDS011;6141;49.092;8.516;2023-05-16T10:14:18;2.70;;;1.47;;
12155;SDS011;6141;49.092;8.516;2023-05-16T10:16:49;2.60;;;1.50;;
12155;SDS011;6141;49.092;8.516;2023-05-16T10:19:19;3.50;;;1.30;;
12155;SDS011;6141;49.092;8.516;2023-05-16T10:21:53;1.50;;;1.20;;
12155;SDS011;6141;49.092;8.516;2023-05-16T10:24:28;1.20;;;1.10;;
12155;SDS011;6141;49.092;8.516;2023-05-16T10:27:01;1.37;;;1.00;;
12155;SDS011;6141;49.092;8.516;2023-05-16T10:29:31;1.73;;;1.27;;
12155;SDS011;6141;49.092;8.516;2023-05-16T10:32:22;1.33;;;0.90;;
12155;SDS011;6141;49.092;8.516;2023-05-16T10:34:51;1.83;;;1.00;;
12155;SDS011;6141;49.092;8.516;2023-05-16T10:37:21;2.80;;;0.80;;
12155;SDS011;6141;49.092;8.516;2023-05-16T10:39:51;1.63;;;0.80;;
12155;SDS011;6141;49.092;8.516;2023-05-16T10:42:20;9.50;;;1.30;;
12155;SDS011;6141;49.092;8.516;2023-05-16T10:44:52;1.50;;;0.70;;
12155;SDS011;6141;49.092;8.516;2023-05-16T10:47:32;1.37;;;1.00;;
12155;SDS011;6141;49.092;8.516;2023-05-16T10:50:01;3.43;;;0.90;;
12155;SDS011;6141;49.092;8.516;2023-05-16T10:52:34;3.97;;;0.80;;
12155;SDS011;6141;49.092;8.516;2023-05-16T10:55:03;0.60;;;0.60;;
12155;SDS011;6141;49.092;8.516;2023-05-16T10:57:32;1.50;;;0.60;;
12155;SDS011;6141;49.092;8.516;2023-05-16T11:00:02;4.13;;;0.83;;
12155;SDS011;6141;49.092;8.516;2023-05-16T11:02:40;1.03;;;0.70;;
12155;SDS011;6141;49.092;8.516;2023-05-16T11:05:12;0.90;;;0.60;;
12155;SDS011;6141;49.092;8.516;2023-05-16T11:07:45;2.43;;;0.90;;
12155;SDS011;6141;49.092;8.516;2023-05-16T11:10:31;1.00;;;0.80;;
12155;SDS011;6141;49.092;8.516;2023-05-16T11:13:06;0.50;;;0.50;;
12155;SDS011;6141;49.092;8.516;2023-05-16T11:15:35;3.40;;;0.70;;
12155;SDS011;6141;49.092;8.516;2023-05-16T11:18:06;1.27;;;0.70;;
12155;SDS011;6141;49.092;8.516;2023-05-16T11:20:36;1.90;;;0.83;;
12155;SDS011;6141;49.092;8.516;2023-05-16T11:23:19;3.40;;;0.80;;
12155;SDS011;6141;49.092;8.516;2023-05-16T11:25:50;0.70;;;0.60;;
12155;SDS011;6141;49.092;8.516;2023-05-16T11:28:20;1.57;;;0.90;;
12155;SDS011;6141;49.092;8.516;2023-05-16T11:30:51;1.47;;;0.83;;
12155;SDS011;6141;49.092;8.516;2023-05-16T11:33:23;1.20;;;0.93;;
12155;SDS011;6141;49.092;8.516;2023-05-16T11:36:00;1.27;;;0.90;;
12155;SDS011;6141;49.092;8.516;2023-05-16T11:38:41;3.13;;;1.10;;
12155;SDS011;6141;49.092;8.516;2023-05-16T11:41:11;1.23;;;0.83;;
12155;SDS011;6141;49.092;8.516;2023-05-16T11:43:43;3.23;;;1.10;;
12155;SDS011;6141;49.092;8.516;2023-05-16T11:46:12;1.63;;;1.00;;
12155;SDS011;6141;49.092;8.516;2023-05-16T11:48:43;2.53;;;0.90;;
12155;SDS011;6141;49.092;8.516;2023-05-16T11:51:13;1.70;;;1.10;;
12155;SDS011;6141;49.092;8.516;2023-05-16T11:53:45;2.50;;;1.20;;
12155;SDS011;6141;49.092;8.516;2023-05-16T11:56:15;2.53;;;1.20;;
12155;SDS011;6141;49.092;8.516;2023-05-16T11:58:44;2.03;;;1.37;;
12155;SDS011;6141;49.092;8.516;2023-05-16T12:01:13;3.40;;;0.97;;
12155;SDS011;6141;49.092;8.516;2023-05-16T12:03:44;2.17;;;1.10;;
12155;SDS011;6141;49.092;8.516;2023-05-16T12:06:23;1.57;;;1.00;;
12155;SDS011;6141;49.092;8.516;2023-05-16T12:08:52;1.00;;;0.90;;
12155;SDS011;6141;49.092;8.516;2023-05-16T12:11:22;1.80;;;0.83;;
12155;SDS011;6141;49.092;8.516;2023-05-16T12:13:51;1.77;;;1.07;;
12155;SDS011;6141;49.092;8.516;2023-05-16T12:16:21;1.10;;;1.00;;
12155;SDS011;6141;49.092;8.516;2023-05-16T12:18:51;1.30;;;0.90;;
12155;SDS011;6141;49.092;8.516;2023-05-16T12:21:20;1.77;;;1.00;;
12155;SDS011;6141;49.092;8.516;2023-05-16T12:23:49;2.30;;;0.83;;
12155;SDS011;6141;49.092;8.516;2023-05-16T12:26:25;1.63;;;0.80;;
12155;SDS011;6141;49.092;8.516;2023-05-16T12:28:56;2.13;;;1.10;;
12155;SDS011;6141;49.092;8.516;2023-05-16T12:31:26;1.90;;;1.00;;
12155;SDS011;6141;49.092;8.516;2023-05-16T12:34:00;4.20;;;0.90;;
12155;SDS011;6141;49.092;8.516;2023-05-16T12:36:30;1.53;;;1.13;;
12155;SDS011;6141;49.092;8.516;2023-05-16T12:39:00;3.03;;;1.43;;
12155;SDS011;6141;49.092;8.516;2023-05-16T12:41:30;2.13;;;1.30;;
12155;SDS011;6141;49.092;8.516;2023-05-16T12:44:05;3.77;;;1.10;;
12155;SDS011;6141;49.092;8.516;2023-05-16T12:46:35;1.90;;;1.20;;
12155;SDS011;6141;49.092;8.516;2023-05-16T12:49:08;3.27;;;1.60;;
12155;SDS011;6141;49.092;8.516;2023-05-16T12:51:37;2.80;;;1.30;;
12155;SDS011;6141;49.092;8.516;2023-05-16T12:54:06;2.43;;;1.40;;
12155;SDS011;6141;49.092;8.516;2023-05-16T12:56:38;3.07;;;1.40;;
12155;SDS011;6141;49.092;8.516;2023-05-16T12:59:07;4.07;;;1.67;;
12155;SDS011;6141;49.092;8.516;2023-05-16T13:01:35;2.47;;;1.70;;
12155;SDS011;6141;49.092;8.516;2023-05-16T13:04:06;3.27;;;1.70;;
12155;SDS011;6141;49.092;8.516;2023-05-16T13:06:41;4.70;;;1.73;;
12155;SDS011;6141;49.092;8.516;2023-05-16T13:09:24;3.27;;;1.87;;
12155;SDS011;6141;49.092;8.516;2023-05-16T13:11:58;4.57;;;1.57;;
12155;SDS011;6141;49.092;8.516;2023-05-16T13:14:27;4.43;;;1.73;;
12155;SDS011;6141;49.092;8.516;2023-05-16T13:16:56;3.70;;;1.60;;
12155;SDS011;6141;49.092;8.516;2023-05-16T13:19:26;5.70;;;1.90;;
12155;SDS011;6141;49.092;8.516;2023-05-16T13:21:57;5.90;;;1.70;;
12155;SDS011;6141;49.092;8.516;2023-05-16T13:24:25;4.17;;;1.70;;
12155;SDS011;6141;49.092;8.516;2023-05-16T13:26:54;4.57;;;1.83;;
12155;SDS011;6141;49.092;8.516;2023-05-16T13:29:25;5.63;;;1.90;;
12155;SDS011;6141;49.092;8.516;2023-05-16T13:31:56;6.67;;;2.03;;
12155;SDS011;6141;49.092;8.516;2023-05-16T13:34:26;5.33;;;2.00;;
12155;SDS011;6141;49.092;8.516;2023-05-16T13:36:54;4.97;;;2.07;;
12155;SDS011;6141;49.092;8.516;2023-05-16T13:39:24;5.87;;;2.03;;
12155;SDS011;6141;49.092;8.516;2023-05-16T13:41:53;5.97;;;2.20;;
12155;SDS011;6141;49.092;8.516;2023-05-16T13:44:22;7.60;;;2.20;;
12155;SDS011;6141;49.092;8.516;2023-05-16T13:46:52;6.83;;;2.40;;
12155;SDS011;6141;49.092;8.516;2023-05-16T13:49:21;4.07;;;2.23;;
12155;SDS011;6141;49.092;8.516;2023-05-16T13:51:51;7.23;;;2.57;;
12155;SDS011;6141;49.092;8.516;2023-05-16T13:54:21;5.63;;;1.90;;
12155;SDS011;6141;49.092;8.516;2023-05-16T13:56:50;6.27;;;2.33;;
12155;SDS011;6141;49.092;8.516;2023-05-16T13:59:18;5.90;;;2.40;;
12155;SDS011;6141;49.092;8.516;2023-05-16T14:02:07;5.80;;;1.97;;
12155;SDS011;6141;49.092;8.516;2023-05-16T14:04:35;7.50;;;2.47;;
12155;SDS011;6141;49.092;8.516;2023-05-16T14:07:06;6.60;;;2.40;;
12155;SDS011;6141;49.092;8.516;2023-05-16T14:09:34;7.00;;;2.43;;
12155;SDS011;6141;49.092;8.516;2023-05-16T14:12:05;7.33;;;2.33;;
12155;SDS011;6141;49.092;8.516;2023-05-16T14:14:34;5.00;;;1.93;;
12155;SDS011;6141;49.092;8.516;2023-05-16T14:17:03;7.90;;;2.50;;
12155;SDS011;6141;49.092;8.516;2023-05-16T14:19:33;7.13;;;2.23;;
12155;SDS011;6141;49.092;8.516;2023-05-16T14:22:02;12.93;;;2.53;;
12155;SDS011;6141;49.092;8.516;2023-05-16T14:24:33;9.00;;;2.70;;
12155;SDS011;6141;49.092;8.516;2023-05-16T14:27:02;6.53;;;2.40;;
12155;SDS011;6141;49.092;8.516;2023-05-16T14:29:30;7.93;;;2.27;;
12155;SDS011;6141;49.092;8.516;2023-05-16T14:31:59;6.17;;;2.40;;
12155;SDS011;6141;49.092;8.516;2023-05-16T14:34:28;9.50;;;2.70;;
12155;SDS011;6141;49.092;8.516;2023-05-16T14:36:57;5.43;;;2.03;;
12155;SDS011;6141;49.092;8.516;2023-05-16T14:39:25;7.07;;;1.90;;
12155;SDS011;6141;49.092;8.516;2023-05-16T14:41:55;5.93;;;2.20;;
12155;SDS011;6141;49.092;8.516;2023-05-16T14:44:24;4.37;;;2.00;;
12155;SDS011;6141;49.092;8.516;2023-05-16T14:46:52;5.00;;;1.80;;
12155;SDS011;6141;49.092;8.516;2023-05-16T14:49:21;5.13;;;2.00;;
12155;SDS011;6141;49.092;8.516;2023-05-16T14:51:50;4.60;;;1.80;;
12155;SDS011;6141;49.092;8.516;2023-05-16T14:54:19;5.40;;;1.87;;
12155;SDS011;6141;49.092;8.516;2023-05-16T14:56:47;7.33;;;2.10;;
12155;SDS011;6141;49.092;8.516;2023-05-16T14:59:20;3.87;;;1.70;;
12155;SDS011;6141;49.092;8.516;2023-05-16T15:01:49;4.57;;;1.70;;
12155;SDS011;6141;49.092;8.516;2023-05-16T15:04:18;4.03;;;1.83;;
12155;SDS011;6141;49.092;8.516;2023-05-16T15:06:46;5.30;;;1.87;;
12155;SDS011;6141;49.092;8.516;2023-05-16T15:09:15;6.43;;;1.93;;